Time;durP1;ratioP1;P1;durP2;ratioP2;P2;SDS_P1;SDS_P2;PMS_P1;PMS_P2;Temp;Humidity;BMP_temperature;BMP_pressure;BME280_temperature;BME280_humidity;BME280_pressure;Samples;Min_cycle;Max_cycle;Signal;HPM_P1;HPM_P2
2024/02/17 00:00:48;;;;;;;12.23;7.00;;;21.30;81.80;;;;;;5003253;28;20208;-58
2024/02/17 00:03:22;;;;;;;11.10;7.43;;;21.30;81.00;;;;;;4998721;28;20676;-61
2024/02/17 00:05:50;;;;;;;11.55;8.18;;;21.30;80.80;;;;;;5001420;28;20211;-61
2024/02/17 00:08:19;;;;;;;10.63;8.02;;;21.30;80.80;;;;;;5001353;28;20194;-62
2024/02/17 00:10:51;;;;;;;10.60;8.32;;;21.30;81.00;;;;;;5002855;28;20242;-62
2024/02/17 00:13:26;;;;;;;9.45;6.85;;;21.30;80.90;;;;;;5005141;28;20286;-62
2024/02/17 00:15:55;;;;;;;10.73;7.40;;;21.30;80.90;;;;;;5000821;28;20219;-62
2024/02/17 00:18:28;;;;;;;11.68;7.57;;;21.30;80.80;;;;;;5003946;28;21232;-61
2024/02/17 00:21:12;;;;;;;11.13;7.10;;;21.30;80.70;;;;;;5003939;28;20200;-60
2024/02/17 00:23:40;;;;;;;7.22;6.45;;;21.30;80.80;;;;;;5002750;28;20256;-63
2024/02/17 00:26:08;;;;;;;8.82;7.38;;;21.20;80.70;;;;;;4993581;28;20655;-62
2024/02/17 00:28:37;;;;;;;7.35;6.47;;;21.20;80.60;;;;;;4996779;28;20192;-62
2024/02/17 00:33:46;;;;;;;8.95;7.55;;;21.20;80.40;;;;;;5002603;28;20204;-63
2024/02/17 00:36:24;;;;;;;9.30;7.10;;;21.20;80.40;;;;;;4996007;28;20227;-58
2024/02/17 00:41:38;;;;;;;11.85;7.05;;;21.10;80.40;;;;;;4992298;28;20204;-59
2024/02/17 00:44:10;;;;;;;9.07;7.13;;;21.10;80.20;;;;;;4998171;28;20201;-62
2024/02/17 00:46:39;;;;;;;9.98;6.97;;;21.10;80.40;;;;;;4994360;28;20200;-61
2024/02/17 00:49:14;;;;;;;8.25;6.68;;;21.10;80.30;;;;;;5003135;28;20572;-61
2024/02/17 00:51:48;;;;;;;8.65;6.50;;;21.10;80.40;;;;;;4987838;28;20200;-61
2024/02/17 00:54:18;;;;;;;8.60;6.40;;;21.10;80.40;;;;;;4986933;28;20212;-60
2024/02/17 00:56:48;;;;;;;7.60;6.03;;;21.10;80.40;;;;;;5000224;28;20232;-62
2024/02/17 00:59:22;;;;;;;7.82;6.22;;;21.10;80.20;;;;;;4998810;28;20212;-61
2024/02/17 01:01:51;;;;;;;6.43;5.82;;;21.00;80.30;;;;;;5001690;28;20204;-62
2024/02/17 01:04:26;;;;;;;12.65;7.00;;;21.00;80.00;;;;;;5002455;28;20213;-65
2024/02/17 01:07:18;;;;;;;8.98;6.72;;;21.00;80.00;;;;;;4996389;28;20611;-57
2024/02/17 01:09:47;;;;;;;9.43;6.63;;;21.00;80.20;;;;;;4989447;28;20211;-63
2024/02/17 01:12:13;;;;;;;6.85;5.78;;;21.00;80.00;;;;;;5007700;28;20207;-64
2024/02/17 01:14:44;;;;;;;8.00;6.95;;;21.00;80.20;;;;;;5004346;28;20588;-59
2024/02/17 01:17:16;;;;;;;9.35;6.03;;;21.00;80.10;;;;;;4997182;28;20302;-63
2024/02/17 01:19:55;;;;;;;;;;;;;;;;;;;;;
2024/02/17 01:22:26;;;;;;;9.75;6.15;;;20.90;80.00;;;;;;5006575;28;20207;-63
2024/02/17 01:25:11;;;;;;;6.57;5.88;;;21.00;80.10;;;;;;4995550;28;20633;-62
2024/02/17 01:27:52;;;;;;;8.63;5.72;;;20.90;79.90;;;;;;5002082;28;21149;-55
2024/02/17 01:30:24;;;;;;;7.07;6.25;;;20.90;79.90;;;;;;4999117;28;20260;-60
2024/02/17 01:32:54;;;;;;;5.90;5.10;;;20.90;80.00;;;;;;4999713;28;20620;-62
2024/02/17 01:35:25;;;;;;;7.28;6.55;;;20.90;79.70;;;;;;4998091;28;20205;-62
2024/02/17 01:38:01;;;;;;;6.50;5.55;;;20.90;79.90;;;;;;5002688;28;20195;-62
2024/02/17 01:40:40;;;;;;;8.90;6.40;;;20.90;80.00;;;;;;5004505;28;21387;-62
2024/02/17 01:43:16;;;;;;;7.90;6.40;;;20.90;80.00;;;;;;4995752;28;20231;-61
2024/02/17 01:45:48;;;;;;;6.40;5.65;;;20.90;80.10;;;;;;5003562;28;20199;-61
2024/02/17 01:48:19;;;;;;;7.00;5.72;;;20.90;80.00;;;;;;5001025;28;20196;-61
2024/02/17 01:51:05;;;;;;;10.70;6.03;;;20.80;79.90;;;;;;4993396;28;20228;-58
2024/02/17 01:53:46;;;;;;;6.60;5.57;;;20.80;79.90;;;;;;5001519;28;20196;-60
2024/02/17 01:56:22;;;;;;;7.05;5.50;;;20.80;80.00;;;;;;5002328;28;20223;-58
2024/02/17 01:58:54;;;;;;;5.40;4.90;;;20.80;80.10;;;;;;5003769;28;20657;-59
2024/02/17 02:01:33;;;;;;;8.25;5.38;;;20.80;80.40;;;;;;4998238;28;20628;-61
2024/02/17 02:04:02;;;;;;;7.85;5.80;;;20.80;80.10;;;;;;5001535;28;21135;-61
2024/02/17 02:06:43;;;;;;;7.72;6.10;;;20.70;80.10;;;;;;5002798;28;20214;-63
2024/02/17 02:09:43;;;;;;;6.78;6.07;;;20.70;80.10;;;;;;5003383;28;20318;-58
2024/02/17 02:12:17;;;;;;;5.75;5.00;;;20.70;80.20;;;;;;5002997;28;20668;-61
2024/02/17 02:14:48;;;;;;;6.07;5.47;;;20.70;79.90;;;;;;5003946;28;20770;-59
2024/02/17 02:17:15;;;;;;;5.32;4.57;;;20.70;79.90;;;;;;5000682;28;20215;-63
2024/02/17 02:19:49;;;;;;;5.75;5.15;;;20.70;79.90;;;;;;4999413;28;20871;-63
2024/02/17 02:22:19;;;;;;;6.95;5.45;;;20.70;80.00;;;;;;5002843;28;20203;-60
2024/02/17 02:24:54;;;;;;;8.25;6.95;;;20.70;80.30;;;;;;4997028;28;20636;-61
2024/02/17 02:27:33;;;;;;;5.32;4.80;;;20.70;79.90;;;;;;5000209;28;20211;-62
2024/02/17 02:30:06;;;;;;;7.68;5.40;;;20.60;79.90;;;;;;5001245;28;20345;-59
2024/02/17 02:32:34;;;;;;;5.95;5.35;;;20.60;79.80;;;;;;5000765;28;20202;-55
2024/02/17 02:35:04;;;;;;;6.85;6.05;;;20.60;80.00;;;;;;4994396;28;20220;-59
2024/02/17 02:37:36;;;;;;;5.15;4.70;;;20.60;79.80;;;;;;4998051;28;20580;-61
2024/02/17 02:40:06;;;;;;;7.38;4.95;;;20.60;79.70;;;;;;5002546;28;20212;-59
2024/02/17 02:42:42;;;;;;;5.72;4.68;;;20.60;80.00;;;;;;4997502;28;20299;-57
2024/02/17 02:45:20;;;;;;;9.75;5.55;;;20.60;80.00;;;;;;4999119;28;20206;-62
2024/02/17 02:47:57;;;;;;;5.80;5.20;;;20.60;80.10;;;;;;5001129;28;20211;-60
2024/02/17 02:50:32;;;;;;;6.63;5.25;;;20.60;79.80;;;;;;4991318;28;20201;-56
2024/02/17 02:53:08;;;;;;;6.18;5.50;;;20.60;80.00;;;;;;4999870;28;20541;-62
2024/02/17 02:55:38;;;;;;;8.23;5.70;;;20.60;79.60;;;;;;5000536;28;20286;-59
2024/02/17 02:58:29;;;;;;;7.95;5.32;;;20.60;80.00;;;;;;4999880;28;20334;-63
2024/02/17 03:01:05;;;;;;;7.45;4.90;;;20.60;80.10;;;;;;4995577;28;20200;-58
2024/02/17 03:03:37;;;;;;;5.50;4.72;;;20.60;79.90;;;;;;5000634;28;20249;-63
2024/02/17 03:08:47;;;;;;;5.00;4.50;;;20.50;79.70;;;;;;5001732;28;20239;-61
2024/02/17 03:11:15;;;;;;;6.75;4.78;;;20.50;80.00;;;;;;4999203;28;20199;-61
2024/02/17 03:13:51;;;;;;;6.82;5.45;;;20.50;79.80;;;;;;5002011;28;20227;-62
2024/02/17 03:16:29;;;;;;;6.03;5.43;;;20.50;79.80;;;;;;4999394;28;20759;-60
2024/02/17 03:19:02;;;;;;;4.95;4.45;;;20.50;79.80;;;;;;5003094;28;20601;-61
2024/02/17 03:21:28;;;;;;;6.55;4.90;;;20.40;80.00;;;;;;5003032;28;20199;-62
2024/02/17 03:24:02;;;;;;;5.20;4.70;;;20.50;79.80;;;;;;5001299;28;20203;-59
2024/02/17 03:26:39;;;;;;;6.35;4.60;;;20.40;80.00;;;;;;5002247;28;20541;-62
2024/02/17 03:29:11;;;;;;;4.95;4.15;;;20.50;80.00;;;;;;5002584;28;20213;-61
2024/02/17 03:31:45;;;;;;;6.13;4.82;;;20.50;79.70;;;;;;4987758;28;20201;-62
2024/02/17 03:34:16;;;;;;;5.97;4.85;;;20.40;79.90;;;;;;4991628;28;20196;-61
2024/02/17 03:36:43;;;;;;;5.32;4.38;;;20.40;79.90;;;;;;4999392;28;20543;-61
2024/02/17 03:39:18;;;;;;;6.50;5.25;;;20.40;80.00;;;;;;5001355;28;20193;-61
2024/02/17 03:41:49;;;;;;;4.72;4.32;;;20.40;79.80;;;;;;5002216;28;20200;-62
2024/02/17 03:44:26;;;;;;;7.22;5.40;;;20.40;80.00;;;;;;4996663;28;20456;-64
2024/02/17 03:46:53;;;;;;;6.28;5.07;;;20.40;80.10;;;;;;5001348;28;20641;-62
2024/02/17 03:49:23;;;;;;;5.53;4.78;;;20.40;80.00;;;;;;4992685;28;20207;-60
2024/02/17 03:51:54;;;;;;;4.55;3.92;;;20.40;80.10;;;;;;4997042;28;20283;-62
2024/02/17 03:54:26;;;;;;;5.70;5.07;;;20.40;80.00;;;;;;5000880;28;20196;-63
2024/02/17 03:56:52;;;;;;;4.28;3.88;;;20.40;79.90;;;;;;4998155;28;20219;-64
2024/02/17 03:59:23;;;;;;;4.90;4.40;;;20.40;80.10;;;;;;4996645;28;20196;-56
2024/02/17 04:01:59;;;;;;;4.55;4.00;;;20.30;80.10;;;;;;5003953;28;20201;-61
2024/02/17 04:04:29;;;;;;;4.97;4.43;;;20.40;80.10;;;;;;5000159;28;20198;-60
2024/02/17 04:06:59;;;;;;;7.85;5.25;;;20.40;79.80;;;;;;5002190;28;20210;-58
2024/02/17 04:09:47;;;;;;;5.03;4.25;;;20.40;80.00;;;;;;5005416;28;20206;-60
2024/02/17 04:12:26;;;;;;;8.40;4.93;;;20.30;80.10;;;;;;4998303;28;20204;-64
2024/02/17 04:14:56;;;;;;;5.25;4.32;;;20.30;79.80;;;;;;4998743;28;20630;-61
2024/02/17 04:17:24;;;;;;;6.05;4.88;;;20.30;80.00;;;;;;4989291;28;20322;-62
2024/02/17 04:20:04;;;;;;;5.10;4.13;;;20.30;80.10;;;;;;4996149;28;20196;-63
2024/02/17 04:22:33;;;;;;;4.93;4.38;;;20.30;80.10;;;;;;5004938;28;20192;-61
2024/02/17 04:25:06;;;;;;;4.50;4.10;;;20.30;80.00;;;;;;5005441;28;20204;-62
2024/02/17 04:27:33;;;;;;;4.70;4.30;;;20.30;80.10;;;;;;5002211;28;20326;-59
2024/02/17 04:30:04;;;;;;;4.90;4.40;;;20.30;80.00;;;;;;5003956;28;20917;-61
2024/02/17 04:32:31;;;;;;;5.60;3.80;;;20.30;80.10;;;;;;5001305;28;20614;-62
2024/02/17 04:35:05;;;;;;;4.80;4.03;;;20.30;80.70;;;;;;4997907;28;20196;-62
2024/02/17 04:37:40;;;;;;;6.05;4.32;;;20.30;80.10;;;;;;5002889;28;20225;-59
2024/02/17 04:40:13;;;;;;;4.32;3.92;;;20.30;80.20;;;;;;5006156;28;20201;-60
2024/02/17 04:42:42;;;;;;;6.50;4.20;;;20.20;80.00;;;;;;4999701;28;20611;-63
2024/02/17 04:45:21;;;;;;;7.13;4.97;;;20.30;80.10;;;;;;5003037;28;20239;-63
2024/02/17 04:47:56;;;;;;;5.63;5.03;;;20.20;80.20;;;;;;5005117;28;20537;-61
2024/02/17 04:50:26;;;;;;;5.00;4.50;;;20.20;80.20;;;;;;5000618;28;20736;-61
2024/02/17 04:52:55;;;;;;;4.05;3.55;;;20.10;79.80;;;;;;5005293;28;20274;-62
2024/02/17 04:55:32;;;;;;;4.63;3.40;;;20.20;80.20;;;;;;5001756;28;20196;-59
2024/02/17 04:58:16;;;;;;;5.45;4.20;;;20.20;80.30;;;;;;4999661;28;20211;-58
2024/02/17 05:00:49;;;;;;;4.90;3.67;;;20.10;80.80;;;;;;4996021;28;20203;-61
2024/02/17 05:03:25;;;;;;;5.10;4.60;;;20.20;80.00;;;;;;5001672;28;20204;-61
2024/02/17 05:06:05;;;;;;;4.15;3.75;;;20.20;80.10;;;;;;4996696;28;20195;-58
2024/02/17 05:08:49;;;;;;;4.30;3.90;;;20.20;80.10;;;;;;5000945;28;20257;-59
2024/02/17 05:11:16;;;;;;;4.95;4.45;;;20.20;79.90;;;;;;5003025;28;20961;-61
2024/02/17 05:13:53;;;;;;;4.15;3.60;;;20.20;80.10;;;;;;4999370;28;20200;-59
2024/02/17 05:21:57;;;;;;;4.00;3.70;;;20.10;80.10;;;;;;5000323;28;20283;-61
2024/02/17 05:24:26;;;;;;;5.18;3.70;;;20.10;80.30;;;;;;4997657;28;20570;-63
2024/02/17 05:26:56;;;;;;;5.97;4.22;;;20.10;80.20;;;;;;5000290;28;20199;-63
2024/02/17 05:29:26;;;;;;;4.10;3.67;;;20.10;79.90;;;;;;4998611;28;20534;-61
2024/02/17 05:32:05;;;;;;;4.57;4.18;;;20.10;80.10;;;;;;5002465;28;20192;-57
2024/02/17 05:34:39;;;;;;;6.25;3.95;;;20.10;80.10;;;;;;4999046;28;20199;-58
2024/02/17 05:37:15;;;;;;;5.20;4.35;;;20.10;80.20;;;;;;4997678;28;20220;-57
2024/02/17 05:39:45;;;;;;;4.60;4.18;;;20.10;80.10;;;;;;4999927;28;20204;-63
2024/02/17 05:42:15;;;;;;;5.05;4.55;;;20.10;80.10;;;;;;4999668;28;20201;-60
2024/02/17 05:44:43;;;;;;;5.72;4.07;;;20.10;80.00;;;;;;5004976;28;20219;-59
2024/02/17 05:47:14;;;;;;;4.63;3.80;;;20.10;80.00;;;;;;5001396;28;20200;-59
2024/02/17 05:49:47;;;;;;;3.88;3.47;;;20.10;80.30;;;;;;5001718;28;20196;-59
2024/02/17 05:52:26;;;;;;;4.68;4.28;;;20.10;80.30;;;;;;5003107;28;20204;-61
2024/02/17 05:54:54;;;;;;;4.32;3.83;;;20.10;80.40;;;;;;5001625;28;20653;-63
2024/02/17 06:00:09;;;;;;;4.20;3.75;;;20.10;80.20;;;;;;4990526;28;20207;-62
2024/02/17 06:02:39;;;;;;;4.32;3.92;;;20.10;80.30;;;;;;5000801;28;20196;-61
2024/02/17 06:05:15;;;;;;;4.72;4.32;;;20.00;80.30;;;;;;5001075;28;20203;-58
2024/02/17 06:07:49;;;;;;;4.15;3.85;;;20.00;80.00;;;;;;4998140;28;20208;-60
2024/02/17 06:10:18;;;;;;;4.82;4.20;;;20.00;80.30;;;;;;4999273;28;20194;-63
2024/02/17 06:12:52;;;;;;;4.03;3.20;;;20.00;79.90;;;;;;4997531;28;20557;-59
2024/02/17 06:15:22;;;;;;;4.78;3.95;;;20.00;80.20;;;;;;5000678;28;20195;-61
2024/02/17 06:23:36;;;;;;;4.35;3.75;;;20.00;80.40;;;;;;5000138;28;20210;-61
2024/02/17 06:26:03;;;;;;;4.45;3.65;;;20.00;80.40;;;;;;5002582;28;20834;-62
2024/02/17 06:28:33;;;;;;;4.53;4.13;;;20.00;80.20;;;;;;4999759;28;20207;-58
2024/02/17 06:31:00;;;;;;;3.92;3.45;;;20.00;80.00;;;;;;4989603;28;20210;-58
2024/02/17 06:33:37;;;;;;;3.88;3.40;;;20.00;80.40;;;;;;5002302;28;20809;-57
2024/02/17 06:36:05;;;;;;;4.40;3.20;;;20.00;80.30;;;;;;4999678;28;20203;-62
2024/02/17 06:38:50;;;;;;;4.03;3.30;;;20.00;80.10;;;;;;5000824;28;20221;-61
2024/02/17 06:41:17;;;;;;;4.97;3.80;;;20.00;80.30;;;;;;4996013;28;20206;-65
2024/02/17 06:46:36;;;;;;;4.75;4.00;;;19.90;80.30;;;;;;4996591;28;20204;-57
2024/02/17 06:49:09;;;;;;;4.55;3.13;;;19.90;81.00;;;;;;5000652;28;20207;-61
2024/02/17 06:51:45;;;;;;;4.10;3.78;;;19.90;80.20;;;;;;4995672;28;20210;-57
2024/02/17 06:54:17;;;;;;;4.35;3.92;;;19.90;80.30;;;;;;5000812;28;20216;-60
2024/02/17 06:56:44;;;;;;;4.63;4.00;;;19.90;80.10;;;;;;4994887;28;20207;-60
2024/02/17 06:59:21;;;;;;;4.15;3.75;;;19.90;80.00;;;;;;4996681;28;20715;-62
2024/02/17 07:01:51;;;;;;;4.45;4.05;;;19.90;80.20;;;;;;4999095;28;20200;-61
2024/02/17 07:04:24;;;;;;;5.68;4.45;;;19.90;80.10;;;;;;4995653;28;20561;-64
2024/02/17 07:06:56;;;;;;;4.10;3.00;;;19.90;80.20;;;;;;5000431;28;20258;-60
2024/02/17 07:09:27;;;;;;;4.32;3.40;;;19.90;80.40;;;;;;5003240;28;20196;-57
2024/02/17 07:11:59;;;;;;;3.70;3.40;;;19.90;80.10;;;;;;5001835;28;20271;-59
2024/02/17 07:14:31;;;;;;;4.32;3.47;;;19.90;80.20;;;;;;4994930;28;20207;-63
2024/02/17 07:17:00;;;;;;;3.45;3.15;;;19.90;80.30;;;;;;4999474;28;20665;-60
2024/02/17 07:19:36;;;;;;;5.03;3.60;;;19.90;80.20;;;;;;4994123;28;20207;-63
2024/02/17 07:22:08;;;;;;;3.70;3.30;;;19.90;80.00;;;;;;4993359;28;20211;-62
2024/02/17 07:24:39;;;;;;;4.20;3.80;;;19.90;80.30;;;;;;5001927;28;20549;-58
2024/02/17 07:27:06;;;;;;;3.63;3.33;;;19.90;80.40;;;;;;4998677;28;20223;-63
2024/02/17 07:29:39;;;;;;;3.63;3.33;;;19.90;80.20;;;;;;4995443;28;20215;-61
2024/02/17 07:32:15;;;;;;;4.57;3.95;;;19.90;80.00;;;;;;5000825;28;20195;-56
2024/02/17 07:34:48;;;;;;;5.82;3.50;;;19.90;80.20;;;;;;4993839;28;20207;-61
2024/02/17 07:37:19;;;;;;;4.00;3.60;;;19.80;79.90;;;;;;4999436;28;20303;-58
2024/02/17 07:39:46;;;;;;;4.50;4.10;;;19.80;80.20;;;;;;5005787;28;20200;-59
2024/02/17 07:42:18;;;;;;;3.85;3.13;;;19.80;80.90;;;;;;4999216;28;20200;-62
2024/02/17 07:45:00;;;;;;;4.30;3.90;;;19.80;80.20;;;;;;5007237;28;20573;-61
2024/02/17 07:47:28;;;;;;;3.25;2.95;;;19.80;80.30;;;;;;4998141;28;20228;-58
2024/02/17 07:50:04;;;;;;;4.03;2.85;;;19.80;80.20;;;;;;5005510;28;20227;-60
2024/02/17 07:52:32;;;;;;;3.45;3.15;;;19.80;80.30;;;;;;5002681;28;20717;-61
2024/02/17 07:55:02;;;;;;;4.18;3.33;;;19.90;80.30;;;;;;5006188;28;20211;-60
2024/02/17 07:57:31;;;;;;;3.70;3.40;;;19.80;80.30;;;;;;5005089;28;20228;-59
2024/02/17 07:59:58;;;;;;;3.67;3.38;;;19.80;80.30;;;;;;5001353;28;20327;-60
2024/02/17 08:02:25;;;;;;;4.05;3.70;;;19.80;80.40;;;;;;4995929;28;20227;-59
2024/02/17 08:04:58;;;;;;;4.72;4.00;;;19.80;80.50;;;;;;5007486;28;20200;-59
2024/02/17 08:07:28;;;;;;;4.18;3.78;;;19.80;80.60;;;;;;4997617;28;20601;-61
2024/02/17 08:09:56;;;;;;;3.40;3.08;;;19.80;80.90;;;;;;5006201;28;20200;-60
2024/02/17 08:12:28;;;;;;;3.88;3.58;;;19.90;81.00;;;;;;5001039;28;20372;-65
2024/02/17 08:15:07;;;;;;;;;;;;;;;;;;;;;
2024/02/17 08:17:50;;;;;;;4.05;3.55;;;19.90;81.10;;;;;;4999045;28;20238;-64
2024/02/17 08:20:18;;;;;;;3.75;3.10;;;19.90;81.20;;;;;;4990986;28;20225;-65
2024/02/17 08:22:53;;;;;;;3.70;3.28;;;20.00;81.60;;;;;;5002301;28;20196;-65
2024/02/17 08:25:22;;;;;;;3.30;3.00;;;20.00;81.60;;;;;;5000669;28;20207;-65
2024/02/17 08:27:50;;;;;;;3.45;3.00;;;20.00;82.20;;;;;;5004066;28;20208;-65
2024/02/17 08:30:32;;;;;;;3.67;3.35;;;20.10;82.50;;;;;;5000138;28;20196;-65
2024/02/17 08:33:07;;;;;;;8.57;3.92;;;20.10;82.70;;;;;;5000469;28;20884;-65
2024/02/17 08:35:38;;;;;;;3.55;3.25;;;20.10;82.60;;;;;;4997642;28;20207;-64
2024/02/17 08:38:10;;;;;;;5.20;3.58;;;20.10;82.50;;;;;;4997932;28;20273;-65
2024/02/17 08:40:42;;;;;;;11.27;3.72;;;20.10;82.50;;;;;;5001061;28;20196;-66
2024/02/17 08:43:12;;;;;;;3.50;2.90;;;20.20;82.70;;;;;;4994351;28;20202;-64
2024/02/17 08:45:40;;;;;;;4.60;3.40;;;20.20;82.80;;;;;;4999692;28;20193;-64
2024/02/17 08:48:12;;;;;;;4.20;3.90;;;20.20;82.80;;;;;;5002894;28;20609;-64
2024/02/17 08:50:51;;;;;;;11.60;3.92;;;20.20;82.80;;;;;;4995226;28;20199;-64
2024/02/17 08:53:38;;;;;;;5.18;3.15;;;20.30;82.50;;;;;;4986020;28;20283;-63
2024/02/17 08:56:07;;;;;;;2.80;2.60;;;20.30;82.70;;;;;;4992942;28;20480;-64
2024/02/17 08:58:34;;;;;;;3.05;2.20;;;20.30;82.70;;;;;;4991628;28;20597;-65
2024/02/17 09:01:06;;;;;;;3.97;3.33;;;20.30;82.50;;;;;;4991133;28;20196;-63
2024/02/17 09:03:35;;;;;;;3.10;2.78;;;20.30;82.50;;;;;;4996775;28;20189;-65
2024/02/17 09:06:07;;;;;;;3.40;2.55;;;20.30;82.50;;;;;;4998950;28;20202;-64
2024/02/17 09:08:46;;;;;;;4.47;3.45;;;20.30;82.40;;;;;;5002253;28;20576;-64
2024/02/17 09:11:17;;;;;;;3.75;2.95;;;20.40;82.40;;;;;;4997543;28;20202;-64
2024/02/17 09:13:54;;;;;;;3.53;3.15;;;20.30;82.10;;;;;;4998570;28;20201;-65
2024/02/17 09:16:30;;;;;;;3.05;2.75;;;20.40;82.40;;;;;;5002433;28;20201;-64
2024/02/17 09:19:06;;;;;;;;;;;;;;;;;;;;;
2024/02/17 09:21:35;;;;;;;2.50;2.30;;;20.40;82.10;;;;;;4993512;28;20197;-64
2024/02/17 09:24:06;;;;;;;4.28;3.15;;;20.40;82.10;;;;;;4996894;28;20313;-64
2024/02/17 09:26:46;;;;;;;3.67;2.50;;;20.40;82.00;;;;;;4993211;28;20207;-64
2024/02/17 09:29:23;;;;;;;2.67;2.42;;;20.40;82.00;;;;;;5001112;28;20291;-64
2024/02/17 09:31:51;;;;;;;2.30;2.10;;;20.40;81.90;;;;;;5000067;28;20291;-63
2024/02/17 09:34:19;;;;;;;3.33;2.58;;;20.50;82.00;;;;;;4992828;28;20439;-64
2024/02/17 09:36:47;;;;;;;3.60;2.88;;;20.50;81.90;;;;;;4992669;28;20236;-64
2024/02/17 09:39:15;;;;;;;3.05;2.20;;;20.50;82.00;;;;;;4990061;28;20251;-64
2024/02/17 09:41:45;;;;;;;3.15;2.50;;;20.40;82.10;;;;;;4989459;28;20203;-67
2024/02/17 09:44:15;;;;;;;2.67;2.47;;;20.50;81.90;;;;;;4976302;28;20775;-63
2024/02/17 09:46:43;;;;;;;3.65;2.35;;;20.50;82.00;;;;;;4991585;28;20197;-71
2024/02/17 09:49:24;;;;;;;2.30;2.10;;;20.50;82.10;;;;;;4995226;28;20208;-70
2024/02/17 09:51:56;;;;;;;2.92;2.63;;;20.60;82.40;;;;;;4996431;28;20205;-68
2024/02/17 09:54:34;;;;;;;;;;;;;;;;;;;;;
2024/02/17 09:57:12;;;;;;;2.70;2.50;;;20.60;82.90;;;;;;4994960;28;20204;-66
2024/02/17 10:02:23;;;;;;;2.35;2.15;;;20.70;83.10;;;;;;4990200;28;20608;-67
2024/02/17 10:05:00;;;;;;;3.45;2.72;;;20.70;83.30;;;;;;4990876;28;20224;-67
2024/02/17 10:07:29;;;;;;;2.60;2.38;;;20.70;83.30;;;;;;4995122;28;20200;-70
2024/02/17 10:10:06;;;;;;;3.55;2.85;;;20.70;83.10;;;;;;4996031;28;20219;-71
2024/02/17 10:12:50;;;;;;;2.65;2.40;;;20.80;83.40;;;;;;4996912;28;20199;-66
2024/02/17 10:15:23;;;;;;;2.50;2.30;;;20.80;83.30;;;;;;5001257;28;20200;-66
2024/02/17 10:17:56;;;;;;;2.40;2.20;;;20.80;83.30;;;;;;4997062;28;20207;-67
2024/02/17 10:20:27;;;;;;;2.95;2.53;;;20.90;83.30;;;;;;4998087;28;20200;-66
2024/02/17 10:23:05;;;;;;;2.97;2.63;;;20.90;83.40;;;;;;4992685;28;20653;-68
2024/02/17 10:25:41;;;;;;;2.78;2.25;;;20.90;83.30;;;;;;4999119;28;20200;-68
2024/02/17 10:28:11;;;;;;;1.98;1.77;;;20.90;83.30;;;;;;4996578;28;20196;-68
2024/02/17 10:30:39;;;;;;;3.35;2.53;;;21.00;83.30;;;;;;4997990;28;20209;-68
2024/02/17 10:33:33;;;;;;;3.03;2.50;;;20.90;83.20;;;;;;4996381;28;20208;-67
2024/02/17 10:38:48;;;;;;;2.25;1.85;;;21.00;83.40;;;;;;4994763;28;20224;-68
2024/02/17 10:41:27;;;;;;;2.30;1.87;;;21.10;83.40;;;;;;4999934;28;20650;-67
2024/02/17 10:43:56;;;;;;;3.35;2.03;;;21.00;83.30;;;;;;4998050;28;20469;-68
2024/02/17 10:46:29;;;;;;;2.63;2.30;;;21.10;83.40;;;;;;4998722;28;20188;-68
2024/02/17 10:49:03;;;;;;;2.55;2.35;;;21.10;83.20;;;;;;4994686;28;20207;-68
2024/02/17 10:51:38;;;;;;;1.63;1.52;;;21.20;83.40;;;;;;4997474;28;20561;-68
2024/02/17 10:54:16;;;;;;;3.30;1.98;;;21.20;83.20;;;;;;4996699;28;20202;-70
2024/02/17 10:56:44;;;;;;;2.83;2.35;;;21.20;83.30;;;;;;4992412;28;20196;-67
2024/02/17 10:59:16;;;;;;;2.40;2.20;;;21.20;83.20;;;;;;4986583;28;20228;-70
2024/02/17 11:01:49;;;;;;;1.90;1.80;;;21.30;83.30;;;;;;4997041;28;20311;-71
2024/02/17 11:04:24;;;;;;;1.90;1.60;;;21.30;83.20;;;;;;4992091;28;20211;-66
2024/02/17 11:06:58;;;;;;;2.67;2.03;;;21.30;83.20;;;;;;4994148;28;20459;-67
2024/02/17 11:09:27;;;;;;;3.63;2.83;;;21.30;83.20;;;;;;4991659;28;20203;-67
2024/02/17 11:12:19;;;;;;;3.03;2.72;;;21.30;83.60;;;;;;4989300;28;20556;-67
2024/02/17 11:14:49;;;;;;;2.10;1.90;;;21.30;83.40;;;;;;4999928;28;20192;-67
2024/02/17 11:17:17;;;;;;;2.70;2.50;;;21.30;83.40;;;;;;4994099;28;20680;-67
2024/02/17 11:20:04;;;;;;;;;;;;;;;;;;;;;
2024/02/17 11:22:38;;;;;;;3.73;1.87;;;21.30;83.10;;;;;;4995018;28;20200;-67
2024/02/17 11:25:06;;;;;;;3.13;2.45;;;21.30;83.00;;;;;;5002792;28;20539;-67
2024/02/17 11:27:42;;;;;;;2.30;2.10;;;21.30;83.00;;;;;;4999873;28;20201;-67
2024/02/17 11:30:19;;;;;;;3.92;2.30;;;21.30;82.90;;;;;;5000288;28;20230;-67
2024/02/17 11:32:56;;;;;;;3.30;2.58;;;21.30;82.80;;;;;;4998440;28;20946;-68
2024/02/17 11:35:35;;;;;;;2.50;2.20;;;21.30;82.70;;;;;;4997860;28;20667;-67
2024/02/17 11:38:09;;;;;;;2.50;2.05;;;21.40;82.60;;;;;;5001768;28;20754;-67
2024/02/17 11:40:42;;;;;;;5.17;2.57;;;21.40;82.70;;;;;;4998134;28;20310;-67
2024/02/17 11:43:19;;;;;;;4.47;2.00;;;21.30;82.40;;;;;;5003898;28;21129;-67
2024/02/17 11:45:57;;;;;;;2.53;1.87;;;21.40;82.50;;;;;;4999898;28;20462;-67
2024/02/17 11:48:32;;;;;;;4.60;2.47;;;21.50;82.60;;;;;;5001921;28;20473;-67
2024/02/17 11:51:08;;;;;;;2.90;2.60;;;21.40;82.50;;;;;;4998559;28;20290;-67
2024/02/17 11:53:37;;;;;;;3.57;2.10;;;21.40;82.40;;;;;;4992014;28;20197;-67
2024/02/17 11:56:14;;;;;;;2.28;1.60;;;21.40;82.50;;;;;;4998391;28;20528;-67
2024/02/17 11:58:48;;;;;;;4.20;2.30;;;21.40;82.30;;;;;;4993583;28;20296;-67
2024/02/17 12:01:36;;;;;;;2.90;2.00;;;21.50;82.30;;;;;;4996771;28;20202;-67
2024/02/17 12:04:11;;;;;;;2.57;2.37;;;21.50;82.20;;;;;;4987017;28;20693;-68
2024/02/17 12:06:40;;;;;;;2.65;2.10;;;21.50;82.20;;;;;;4995082;28;20457;-67
2024/02/17 12:09:11;;;;;;;2.70;2.50;;;21.50;82.10;;;;;;4993892;28;20199;-67
2024/02/17 12:11:50;;;;;;;4.33;2.20;;;21.50;82.10;;;;;;4992911;28;20566;-67
2024/02/17 12:14:24;;;;;;;2.70;2.23;;;21.50;82.00;;;;;;4989016;28;20467;-67
2024/02/17 12:16:55;;;;;;;3.28;2.10;;;21.50;82.00;;;;;;4992613;28;20979;-67
2024/02/17 12:19:25;;;;;;;2.60;2.40;;;21.50;81.80;;;;;;4995039;28;20223;-67
2024/02/17 12:22:01;;;;;;;1.87;1.77;;;21.60;81.90;;;;;;5002422;28;20459;-67
2024/02/17 12:24:30;;;;;;;3.97;2.77;;;21.60;81.70;;;;;;4997709;28;20777;-67
2024/02/17 12:27:01;;;;;;;2.40;2.20;;;21.50;81.50;;;;;;4993947;28;22664;-67
2024/02/17 12:29:32;;;;;;;4.00;1.90;;;21.60;81.60;;;;;;5002091;28;20474;-67
2024/02/17 12:32:04;;;;;;;2.60;2.30;;;21.50;81.40;;;;;;4995090;28;20195;-67
2024/02/17 12:34:35;;;;;;;4.57;2.97;;;21.60;81.60;;;;;;4999543;28;20464;-67
2024/02/17 12:37:09;;;;;;;4.00;2.17;;;21.60;81.50;;;;;;4993064;28;20466;-67
2024/02/17 12:39:39;;;;;;;2.88;2.50;;;21.60;81.40;;;;;;4999574;28;20474;-67
2024/02/17 12:42:09;;;;;;;2.10;1.63;;;21.60;81.40;;;;;;4994585;28;20749;-67
2024/02/17 12:44:55;;;;;;;3.90;2.20;;;21.60;81.40;;;;;;5000617;28;21131;-67
2024/02/17 12:47:29;;;;;;;3.03;2.72;;;21.60;81.40;;;;;;4987700;28;20542;-67
2024/02/17 12:50:00;;;;;;;4.20;2.77;;;21.60;81.40;;;;;;4997933;28;20195;-67
2024/02/17 12:52:43;;;;;;;4.87;2.30;;;21.70;81.50;;;;;;4993716;28;20649;-67
2024/02/17 12:55:13;;;;;;;3.40;2.40;;;21.70;81.60;;;;;;4993215;28;20463;-68
2024/02/17 12:57:49;;;;;;;3.07;2.77;;;21.80;81.60;;;;;;4999608;28;20735;-68
2024/02/17 13:00:34;;;;;;;;;;;;;;;;;;;;;
2024/02/17 13:03:07;;;;;;;6.67;2.97;;;21.80;81.60;;;;;;5000891;28;20813;-68
2024/02/17 13:05:40;;;;;;;2.40;2.20;;;21.80;81.70;;;;;;4997010;28;20560;-67
2024/02/17 13:08:23;;;;;;;3.93;2.50;;;21.80;82.60;;;;;;5000671;28;20438;-67
2024/02/17 13:10:52;;;;;;;3.13;2.40;;;21.80;81.50;;;;;;4998534;28;20444;-67
2024/02/17 13:13:28;;;;;;;3.00;2.43;;;21.80;81.60;;;;;;4994768;28;20462;-68
2024/02/17 13:16:01;;;;;;;2.57;2.37;;;21.90;81.50;;;;;;5003561;28;20502;-67
2024/02/17 13:18:40;;;;;;;3.47;1.90;;;21.90;81.40;;;;;;4998587;28;20459;-67
2024/02/17 13:21:14;;;;;;;2.97;2.00;;;21.90;81.30;;;;;;4995789;28;20991;-67
2024/02/17 13:23:41;;;;;;;2.53;2.33;;;21.90;81.40;;;;;;4996387;28;20981;-67
2024/02/17 13:26:12;;;;;;;2.43;2.10;;;21.90;80.50;;;;;;5002770;28;20462;-67
2024/02/17 13:28:42;;;;;;;3.30;2.60;;;21.80;79.70;;;;;;5000857;28;20462;-67
2024/02/17 13:31:18;;;;;;;4.10;2.57;;;21.80;79.50;;;;;;4994503;28;20503;-67
2024/02/17 13:33:51;;;;;;;2.67;2.43;;;21.90;78.70;;;;;;5000151;28;20463;-67
2024/02/17 13:36:18;;;;;;;5.00;2.37;;;21.80;79.50;;;;;;5003541;28;20858;-67
2024/02/17 13:38:52;;;;;;;2.60;2.30;;;21.80;79.30;;;;;;5000363;28;20528;-67
2024/02/17 13:41:19;;;;;;;2.87;2.30;;;21.90;79.30;;;;;;4993657;28;20840;-68
2024/02/17 13:43:47;;;;;;;3.63;2.63;;;21.80;79.50;;;;;;4995249;28;20464;-67
2024/02/17 13:46:26;;;;;;;2.80;2.60;;;21.80;79.40;;;;;;4995813;28;20459;-67
2024/02/17 13:48:55;;;;;;;3.57;2.30;;;21.80;79.30;;;;;;4996922;28;20498;-67
2024/02/17 13:51:33;;;;;;;3.80;2.30;;;21.80;79.40;;;;;;4995497;28;20462;-67
2024/02/17 13:54:08;;;;;;;3.77;2.27;;;21.90;79.40;;;;;;4994303;28;20459;-67